createdAt,value
2022-08-02T00:00:10.385Z,101229.84
2022-08-02T00:02:36.911Z,101228.31
2022-08-02T00:05:03.929Z,101234.22
2022-08-02T00:07:30.579Z,101222.69
2022-08-02T00:09:57.208Z,101230.03
2022-08-02T00:12:23.918Z,101225.94
2022-08-02T00:14:50.383Z,101228.59
2022-08-02T00:17:17.101Z,101217.03
2022-08-02T00:19:44.285Z,101215.53
2022-08-02T00:22:11.222Z,101208.25
2022-08-02T00:24:37.938Z,101212.91
2022-08-02T00:27:09.423Z,101218.53
2022-08-02T00:29:36.262Z,101210.50
2022-08-02T00:32:16.904Z,101206.22
2022-08-02T00:34:43.346Z,101201.44
2022-08-02T00:37:09.783Z,101206.44
2022-08-02T00:39:36.733Z,101208.13
2022-08-02T00:42:04.441Z,101212.25
2022-08-02T00:44:30.941Z,101213.28
2022-08-02T00:46:57.445Z,101204.56
2022-08-02T00:49:24.006Z,101207.47
2022-08-02T00:51:50.998Z,101214.25
2022-08-02T00:54:17.989Z,101218.19
2022-08-02T00:56:50.028Z,101218.06
2022-08-02T00:59:18.403Z,101222.41
2022-08-02T01:01:56.654Z,101220.06
2022-08-02T01:04:31.526Z,101224.31
2022-08-02T01:07:13.336Z,101225.03
2022-08-02T01:09:45.060Z,101226.84
2022-08-02T01:12:12.697Z,101228.88
2022-08-02T01:14:43.606Z,101222.78
2022-08-02T01:17:38.782Z,101225.84
2022-08-02T01:20:23.741Z,101226.34
2022-08-02T01:23:27.602Z,101232.47
2022-08-02T01:26:02.733Z,101226.16
2022-08-02T01:28:40.579Z,101230.16
2022-08-02T01:31:13.758Z,101233.19
2022-08-02T01:33:48.584Z,101227.22
2022-08-02T01:36:18.348Z,101229.81
2022-08-02T01:38:50.397Z,101237.47
2022-08-02T01:41:20.050Z,101242.78
2022-08-02T01:43:49.903Z,101245.28
2022-08-02T01:46:18.856Z,101244.09
2022-08-02T01:48:47.285Z,101243.09
2022-08-02T01:51:16.641Z,101251.44
2022-08-02T01:53:48.369Z,101254.16
2022-08-02T01:56:15.943Z,101260.38
2022-08-02T01:58:45.428Z,101265.34
2022-08-02T02:01:15.075Z,101264.56
2022-08-02T02:03:47.469Z,101278.41
2022-08-02T02:06:16.213Z,101270.56
2022-08-02T02:08:44.633Z,101280.47
2022-08-02T02:12:08.684Z,101289.16
2022-08-02T02:14:01.406Z,101293.59
2022-08-02T02:16:28.869Z,101295.06
2022-08-02T02:18:55.359Z,101298.69
2022-08-02T02:21:22.181Z,101300.22
2022-08-02T02:23:50.932Z,101300.97
2022-08-02T02:26:20.870Z,101307.19
2022-08-02T02:29:01.690Z,101302.16
2022-08-02T02:31:32.651Z,101309.19
2022-08-02T02:34:02.801Z,101304.47
2022-08-02T02:36:31.111Z,101309.56
2022-08-02T02:39:01.601Z,101310.59
2022-08-02T02:41:29.227Z,101305.78
2022-08-02T02:43:58.445Z,101309.44
2022-08-02T02:46:26.999Z,101302.66
2022-08-02T02:48:54.985Z,101295.72
2022-08-02T02:51:22.345Z,101289.41
2022-08-02T02:54:33.588Z,101291.69
2022-08-02T02:56:38.775Z,101287.50
2022-08-02T02:59:07.140Z,101285.53
2022-08-02T03:01:53.158Z,101277.56
2022-08-02T03:04:22.434Z,101277.59
2022-08-02T03:06:49.017Z,101270.41
2022-08-02T03:09:15.567Z,101276.41
2022-08-02T03:11:42.807Z,101278.41
2022-08-02T03:14:10.981Z,101282.66
2022-08-02T03:16:50.680Z,101281.03
2022-08-02T03:19:18.166Z,101280.00
2022-08-02T03:21:45.917Z,101271.25
2022-08-02T03:24:13.493Z,101268.66
2022-08-02T03:26:40.265Z,101274.22
2022-08-02T03:29:09.795Z,101272.88
2022-08-02T03:31:40.999Z,101269.69
2022-08-02T03:34:08.144Z,101274.84
2022-08-02T03:36:36.305Z,101268.06
2022-08-02T03:39:04.328Z,101272.59
2022-08-02T03:41:31.883Z,101266.81
2022-08-02T03:43:59.364Z,101269.03
2022-08-02T03:46:26.855Z,101268.69
2022-08-02T03:48:55.015Z,101272.25
2022-08-02T03:51:22.606Z,101268.47
2022-08-02T03:53:49.550Z,101265.09
2022-08-02T03:56:16.673Z,101266.56
2022-08-02T03:58:47.121Z,101271.47
2022-08-02T04:01:16.176Z,101273.50
2022-08-02T04:03:42.850Z,101266.59
2022-08-02T04:06:09.356Z,101276.72
2022-08-02T04:08:38.382Z,101274.47
2022-08-02T04:11:25.247Z,101277.31
2022-08-02T04:13:52.536Z,101270.38
2022-08-02T04:16:31.836Z,101280.22
2022-08-02T04:19:01.603Z,101281.66
2022-08-02T04:21:49.849Z,101282.81
2022-08-02T04:24:24.491Z,101284.16
2022-08-02T04:26:57.816Z,101271.72
2022-08-02T04:29:30.010Z,101276.47
2022-08-02T04:31:56.982Z,101273.56
2022-08-02T04:34:23.801Z,101272.91
2022-08-02T04:36:50.534Z,101269.66
2022-08-02T04:39:17.069Z,101278.34
2022-08-02T04:41:48.932Z,101278.56
2022-08-02T04:44:15.417Z,101276.78
2022-08-02T04:46:43.754Z,101286.19
2022-08-02T04:49:10.499Z,101287.94
2022-08-02T04:51:38.948Z,101293.72
2022-08-02T04:54:09.850Z,101296.28
2022-08-02T04:56:40.411Z,101305.06
2022-08-02T04:59:07.253Z,101308.66
2022-08-02T05:01:35.633Z,101301.47
2022-08-02T05:04:02.648Z,101311.94
2022-08-02T05:06:29.224Z,101309.09
2022-08-02T05:08:55.917Z,101316.56
2022-08-02T05:11:36.272Z,101314.25
2022-08-02T05:14:05.572Z,101314.91
2022-08-02T05:16:32.540Z,101309.94
2022-08-02T05:19:01.112Z,101316.47
2022-08-02T05:21:28.610Z,101316.06
2022-08-02T05:23:55.193Z,101325.66
2022-08-02T05:26:21.734Z,101331.97
2022-08-02T05:28:48.190Z,101337.41
2022-08-02T05:31:14.628Z,101342.34
2022-08-02T05:33:41.714Z,101350.53
2022-08-02T05:36:09.364Z,101356.41
2022-08-02T05:38:37.129Z,101359.16
2022-08-02T05:41:06.437Z,101354.84
2022-08-02T05:43:33.271Z,101361.72
2022-08-02T05:46:00.249Z,101358.22
2022-08-02T05:48:31.689Z,101362.34
2022-08-02T05:51:16.386Z,101368.00
2022-08-02T05:53:50.712Z,101373.19
2022-08-02T05:56:24.774Z,101376.19
2022-08-02T05:59:01.348Z,101381.78
2022-08-02T06:01:38.198Z,101378.88
2022-08-02T06:04:10.224Z,101378.13
2022-08-02T06:06:38.204Z,101379.47
2022-08-02T06:09:10.805Z,101386.59
2022-08-02T06:12:01.597Z,101389.31
2022-08-02T06:14:32.912Z,101388.16
2022-08-02T06:17:03.729Z,101390.69
2022-08-02T06:19:31.560Z,101392.63
2022-08-02T06:22:32.952Z,101383.94
2022-08-02T06:25:03.858Z,101389.31
2022-08-02T06:27:30.665Z,101386.97
2022-08-02T06:29:57.949Z,101394.00
2022-08-02T06:32:26.983Z,101390.38
2022-08-02T06:34:53.569Z,101394.06
2022-08-02T06:37:22.952Z,101385.28
2022-08-02T06:39:51.965Z,101388.41
2022-08-02T06:42:27.331Z,101381.00
2022-08-02T06:44:57.738Z,101394.38
2022-08-02T06:47:24.747Z,101395.00
2022-08-02T06:49:54.134Z,101404.28
2022-08-02T06:52:28.812Z,101411.22
2022-08-02T06:54:57.297Z,101410.28
2022-08-02T06:57:23.797Z,101419.72
2022-08-02T06:59:50.327Z,101412.34
2022-08-02T07:02:16.847Z,101417.06
2022-08-02T07:04:43.416Z,101423.19
2022-08-02T07:07:09.963Z,101418.53
2022-08-02T07:09:36.432Z,101424.88
2022-08-02T07:12:05.385Z,101436.06
2022-08-02T07:14:32.121Z,101435.88
2022-08-02T07:16:58.890Z,101431.63
2022-08-02T07:19:37.421Z,101432.09
2022-08-02T07:22:04.762Z,101425.44
2022-08-02T07:24:31.253Z,101439.09
2022-08-02T07:27:11.069Z,101437.53
2022-08-02T07:29:44.927Z,101432.84
2022-08-02T07:32:12.234Z,101420.28
2022-08-02T07:34:39.000Z,101429.44
2022-08-02T07:37:19.491Z,101438.25
2022-08-02T07:39:56.160Z,101433.13
2022-08-02T07:42:23.621Z,101425.53
2022-08-02T07:44:50.674Z,101430.00
2022-08-02T07:47:17.827Z,101438.38
2022-08-02T07:49:44.834Z,101429.28
2022-08-02T07:52:12.105Z,101429.75
2022-08-02T07:54:38.903Z,101432.97
2022-08-02T07:57:05.643Z,101431.00
2022-08-02T07:59:32.279Z,101423.06
2022-08-02T08:01:59.007Z,101426.66
2022-08-02T08:04:25.726Z,101430.59
2022-08-02T08:06:52.744Z,101437.75
2022-08-02T08:09:20.132Z,101427.84
2022-08-02T08:11:46.710Z,101429.81
2022-08-02T08:14:16.632Z,101432.22
2022-08-02T08:16:43.992Z,101431.06
2022-08-02T08:19:10.696Z,101425.09
2022-08-02T08:21:37.264Z,101418.34
2022-08-02T08:24:04.775Z,101419.91
2022-08-02T08:26:32.098Z,101422.69
2022-08-02T08:28:58.698Z,101418.34
2022-08-02T08:31:25.174Z,101422.31
2022-08-02T08:33:52.595Z,101421.91
2022-08-02T08:36:19.131Z,101425.47
2022-08-02T08:38:45.588Z,101423.88
2022-08-02T08:41:12.145Z,101434.22
2022-08-02T08:43:38.712Z,101431.38
2022-08-02T08:46:06.953Z,101431.38
2022-08-02T08:48:38.325Z,101428.19
2022-08-02T08:51:11.412Z,101429.38
2022-08-02T08:53:42.213Z,101435.34
2022-08-02T08:56:15.922Z,101426.94
2022-08-02T08:58:45.305Z,101429.31
2022-08-02T09:01:13.004Z,101426.91
2022-08-02T09:03:39.680Z,101429.25
2022-08-02T09:06:06.336Z,101426.44
2022-08-02T09:08:32.939Z,101427.63
2022-08-02T09:10:59.457Z,101422.84
2022-08-02T09:13:45.529Z,101419.22
2022-08-02T09:16:14.354Z,101424.78
2022-08-02T09:18:46.428Z,101435.06
2022-08-02T09:21:15.046Z,101437.03
2022-08-02T09:23:47.322Z,101435.78
2022-08-02T09:26:14.964Z,101418.69
2022-08-02T09:28:43.934Z,101428.63
2022-08-02T09:31:10.363Z,101429.72
2022-08-02T09:33:38.866Z,101430.13
2022-08-02T09:36:08.330Z,101432.13
2022-08-02T09:38:36.786Z,101434.81
2022-08-02T09:41:05.399Z,101427.66
2022-08-02T09:44:03.263Z,101427.94
2022-08-02T09:46:32.203Z,101418.03
2022-08-02T09:49:02.500Z,101432.00
2022-08-02T09:51:37.758Z,101428.41
2022-08-02T09:54:09.854Z,101422.47
2022-08-02T09:56:45.222Z,101424.44
2022-08-02T09:59:13.126Z,101429.63
2022-08-02T10:01:40.388Z,101425.56
2022-08-02T10:04:24.648Z,101434.34
2022-08-02T10:06:53.604Z,101422.31
2022-08-02T10:09:20.876Z,101416.78
2022-08-02T10:11:47.837Z,101415.69
2022-08-02T10:14:14.689Z,101418.66
2022-08-02T10:16:43.014Z,101408.72
2022-08-02T10:19:10.417Z,101408.72
2022-08-02T10:22:01.358Z,101391.22
2022-08-02T10:24:30.437Z,101383.97
2022-08-02T10:26:59.539Z,101370.41
2022-08-02T10:29:54.131Z,101372.66
2022-08-02T10:32:24.232Z,101374.63
2022-08-02T10:34:56.960Z,101376.56
2022-08-02T10:37:30.565Z,101370.16
2022-08-02T10:39:58.012Z,101360.59
2022-08-02T10:42:43.861Z,101357.75
2022-08-02T10:45:12.174Z,101372.81
2022-08-02T10:47:38.658Z,101375.22
2022-08-02T10:50:05.738Z,101374.81
2022-08-02T10:52:32.651Z,101371.63
2022-08-02T10:55:01.170Z,101375.16
2022-08-02T10:57:32.085Z,101368.81
2022-08-02T11:00:03.945Z,101362.09
2022-08-02T11:02:36.881Z,101363.59
2022-08-02T11:05:10.020Z,101367.94
2022-08-02T11:07:38.636Z,101369.19
2022-08-02T11:10:50.402Z,101358.75
2022-08-02T11:13:19.605Z,101361.00
2022-08-02T11:15:51.746Z,101365.75
2022-08-02T11:18:19.368Z,101356.22
2022-08-02T11:20:46.802Z,101358.53
2022-08-02T11:23:46.206Z,101359.31
2022-08-02T11:26:30.722Z,101372.03
2022-08-02T11:29:01.635Z,101368.81
2022-08-02T11:31:28.987Z,101369.63
2022-08-02T11:33:55.573Z,101366.72
2022-08-02T11:36:22.926Z,101364.09
2022-08-02T11:38:49.734Z,101361.53
2022-08-02T11:41:46.106Z,101370.28
2022-08-02T11:44:11.601Z,101361.50
2022-08-02T11:46:38.170Z,101364.69
2022-08-02T11:49:18.724Z,101362.63
2022-08-02T11:52:12.245Z,101360.53
2022-08-02T11:54:42.128Z,101360.16
2022-08-02T11:57:22.397Z,101350.03
2022-08-02T11:59:53.021Z,101340.91
2022-08-02T12:02:22.290Z,101346.09
2022-08-02T12:04:58.370Z,101340.41
2022-08-02T12:07:45.950Z,101341.22
2022-08-02T12:10:18.777Z,101335.25
2022-08-02T12:12:57.818Z,101334.47
2022-08-02T12:15:41.593Z,101333.16
2022-08-02T12:18:31.933Z,101328.19
2022-08-02T12:20:58.610Z,101322.03
2022-08-02T12:23:25.540Z,101324.91
2022-08-02T12:26:06.380Z,101324.34
2022-08-02T12:28:41.061Z,101315.31
2022-08-02T12:31:18.069Z,101314.19
2022-08-02T12:33:50.733Z,101311.41
2022-08-02T12:36:26.983Z,101315.78
2022-08-02T12:38:55.529Z,101312.91
2022-08-02T12:41:31.764Z,101316.41
2022-08-02T12:43:59.654Z,101314.91
2022-08-02T12:46:26.242Z,101306.47
2022-08-02T12:49:16.234Z,101302.13
2022-08-02T12:51:51.380Z,101309.69
2022-08-02T12:54:32.135Z,101301.78
2022-08-02T12:57:14.025Z,101300.75
2022-08-02T12:59:42.375Z,101297.59
2022-08-02T13:02:11.951Z,101297.16
2022-08-02T13:04:39.218Z,101300.56
2022-08-02T13:07:06.511Z,101293.81
2022-08-02T13:09:42.169Z,101278.19
2022-08-02T13:12:09.041Z,101288.63
2022-08-02T13:14:40.473Z,101280.81
2022-08-02T13:17:09.857Z,101275.28
2022-08-02T13:19:36.948Z,101260.56
2022-08-02T13:22:04.186Z,101257.03
2022-08-02T13:24:38.906Z,101261.44
2022-08-02T13:27:20.906Z,101274.34
2022-08-02T13:29:49.195Z,101263.91
2022-08-02T13:32:17.247Z,101264.69
2022-08-02T13:34:44.044Z,101251.31
2022-08-02T13:37:10.772Z,101251.13
2022-08-02T13:39:37.238Z,101253.75
2022-08-02T13:42:03.985Z,101254.09
2022-08-02T13:44:32.593Z,101255.59
2022-08-02T13:46:59.136Z,101241.44
2022-08-02T13:49:51.033Z,101241.59
2022-08-02T13:52:12.726Z,101241.97
2022-08-02T13:54:39.509Z,101248.06
2022-08-02T13:57:06.094Z,101239.50
2022-08-02T13:59:57.166Z,101235.19
2022-08-02T14:02:19.149Z,101240.44
2022-08-02T14:04:46.131Z,101244.59
2022-08-02T14:07:12.897Z,101235.13
2022-08-02T14:09:40.457Z,101248.91
2022-08-02T14:12:09.982Z,101243.16
2022-08-02T14:14:36.790Z,101244.41
2022-08-02T14:17:03.445Z,101239.31
2022-08-02T14:19:30.195Z,101242.72
2022-08-02T14:22:10.717Z,101243.97
2022-08-02T14:24:38.188Z,101240.72
2022-08-02T14:27:04.842Z,101237.44
2022-08-02T14:29:31.314Z,101235.41
2022-08-02T14:31:57.929Z,101233.19
2022-08-02T14:34:24.499Z,101229.47
2022-08-02T14:36:53.917Z,101224.63
2022-08-02T14:39:21.424Z,101224.34
2022-08-02T14:41:59.645Z,101222.25
2022-08-02T14:44:26.979Z,101229.22
2022-08-02T14:46:53.754Z,101215.88
2022-08-02T14:49:25.047Z,101218.88
2022-08-02T14:51:56.412Z,101208.59
2022-08-02T14:54:28.025Z,101202.19
2022-08-02T14:57:02.285Z,101203.63
2022-08-02T14:59:30.442Z,101203.28
2022-08-02T15:01:58.126Z,101211.69
2022-08-02T15:04:25.139Z,101190.91
2022-08-02T15:06:53.255Z,101191.72
2022-08-02T15:09:20.296Z,101194.88
2022-08-02T15:11:49.056Z,101185.75
2022-08-02T15:14:22.063Z,101178.66
2022-08-02T15:16:57.127Z,101179.78
2022-08-02T15:19:35.408Z,101176.47
2022-08-02T15:22:14.401Z,101164.50
2022-08-02T15:24:44.239Z,101158.78
2022-08-02T15:27:13.618Z,101172.38
2022-08-02T15:29:41.099Z,101173.88
2022-08-02T15:32:07.806Z,101168.00
2022-08-02T15:34:34.389Z,101161.59
2022-08-02T15:37:01.059Z,101170.50
2022-08-02T15:39:27.609Z,101166.88
2022-08-02T15:41:54.192Z,101175.97
2022-08-02T15:44:20.661Z,101171.59
2022-08-02T15:46:47.197Z,101158.63
2022-08-02T15:49:13.800Z,101155.53
2022-08-02T15:51:40.345Z,101160.09
2022-08-02T15:54:06.817Z,101147.22
2022-08-02T15:56:33.300Z,101158.88
2022-08-02T15:58:59.881Z,101162.75
2022-08-02T16:01:37.451Z,101161.59
2022-08-02T16:04:08.351Z,101151.31
2022-08-02T16:06:35.757Z,101155.53
2022-08-02T16:09:03.014Z,101151.63
2022-08-02T16:11:29.803Z,101151.19
2022-08-02T16:13:56.730Z,101140.84
2022-08-02T16:16:28.510Z,101140.41
2022-08-02T16:18:54.998Z,101154.59
2022-08-02T16:21:24.682Z,101142.59
2022-08-02T16:23:59.233Z,101132.78
2022-08-02T16:26:34.670Z,101140.25
2022-08-02T16:29:02.915Z,101132.13
2022-08-02T16:31:29.653Z,101130.16
2022-08-02T16:33:57.048Z,101126.69
2022-08-02T16:36:25.734Z,101123.97
2022-08-02T16:38:53.704Z,101125.34
2022-08-02T16:41:20.506Z,101123.81
2022-08-02T16:43:46.974Z,101114.69
2022-08-02T16:46:13.896Z,101118.50
2022-08-02T16:48:40.621Z,101120.66
2022-08-02T16:51:13.978Z,101112.25
2022-08-02T16:53:59.969Z,101118.22
2022-08-02T16:56:28.520Z,101112.69
2022-08-02T16:58:55.340Z,101105.91
2022-08-02T17:01:27.618Z,101110.25
2022-08-02T17:03:56.813Z,101107.16
2022-08-02T17:06:26.130Z,101110.91
2022-08-02T17:08:56.144Z,101109.09
2022-08-02T17:11:23.952Z,101109.03
2022-08-02T17:14:09.568Z,101106.47
2022-08-02T17:16:36.523Z,101104.03
2022-08-02T17:19:04.998Z,101098.28
2022-08-02T17:21:34.033Z,101098.63
2022-08-02T17:24:07.744Z,101100.72
2022-08-02T17:26:37.134Z,101099.28
2022-08-02T17:29:16.814Z,101103.16
2022-08-02T17:32:05.130Z,101105.97
2022-08-02T17:34:33.475Z,101105.81
2022-08-02T17:37:00.268Z,101103.38
2022-08-02T17:39:33.553Z,101111.28
2022-08-02T17:42:01.372Z,101106.03
2022-08-02T17:44:37.754Z,101116.59
2022-08-02T17:47:07.192Z,101112.22
2022-08-02T17:49:42.708Z,101119.03
2022-08-02T17:52:48.344Z,101112.22
2022-08-02T17:54:57.604Z,101107.25
2022-08-02T17:57:24.283Z,101101.50
2022-08-02T18:00:11.512Z,101109.56
2022-08-02T18:02:39.091Z,101096.50
2022-08-02T18:05:05.979Z,101098.91
2022-08-02T18:07:49.077Z,101094.66
2022-08-02T18:10:21.460Z,101101.03
2022-08-02T18:12:49.682Z,101094.03
2022-08-02T18:15:16.221Z,101099.63
2022-08-02T18:17:42.845Z,101098.88
2022-08-02T18:20:11.134Z,101098.19
2022-08-02T18:22:38.046Z,101097.88
2022-08-02T18:25:09.449Z,101096.03
2022-08-02T18:27:36.193Z,101093.72
2022-08-02T18:30:07.881Z,101096.28
2022-08-02T18:33:01.139Z,101091.13
2022-08-02T18:35:21.001Z,101095.50
2022-08-02T18:37:56.774Z,101085.31
2022-08-02T18:40:24.119Z,101091.31
2022-08-02T18:42:50.612Z,101081.88
2022-08-02T18:45:19.660Z,101090.22
2022-08-02T18:47:50.903Z,101081.69
2022-08-02T18:50:18.074Z,101074.97
2022-08-02T18:52:44.739Z,101082.16
2022-08-02T18:55:17.681Z,101083.59
2022-08-02T18:58:18.518Z,101084.47
2022-08-02T19:00:47.618Z,101082.66
2022-08-02T19:03:21.492Z,101076.38
2022-08-02T19:05:52.309Z,101077.63
2022-08-02T19:08:26.322Z,101080.06
2022-08-02T19:10:55.185Z,101083.78
2022-08-02T19:13:23.515Z,101087.03
2022-08-02T19:15:50.144Z,101085.06
2022-08-02T19:18:16.703Z,101080.75
2022-08-02T19:20:47.401Z,101089.16
2022-08-02T19:23:17.112Z,101080.06
2022-08-02T19:25:50.146Z,101080.50
2022-08-02T19:28:17.010Z,101094.81
2022-08-02T19:30:53.042Z,101093.28
2022-08-02T19:33:54.538Z,101091.72
2022-08-02T19:36:07.018Z,101090.56
2022-08-02T19:38:33.503Z,101087.84
2022-08-02T19:41:01.743Z,101075.53
2022-08-02T19:44:26.324Z,101080.31
2022-08-02T19:46:15.895Z,101071.19
2022-08-02T19:48:43.124Z,101071.22
2022-08-02T19:51:12.951Z,101076.03
2022-08-02T19:53:48.251Z,101069.69
2022-08-02T19:56:20.254Z,101085.13
2022-08-02T19:58:47.526Z,101080.78
2022-08-02T20:01:16.865Z,101081.56
2022-08-02T20:03:52.453Z,101089.53
2022-08-02T20:06:30.000Z,101093.84
2022-08-02T20:09:01.273Z,101082.38
2022-08-02T20:11:34.341Z,101085.16
2022-08-02T20:14:03.887Z,101081.94
2022-08-02T20:16:32.934Z,101085.09
2022-08-02T20:19:00.922Z,101077.56
2022-08-02T20:21:35.683Z,101086.28
2022-08-02T20:24:03.615Z,101081.13
2022-08-02T20:26:30.487Z,101081.13
2022-08-02T20:29:02.285Z,101085.50
2022-08-02T20:31:29.860Z,101082.31
2022-08-02T20:33:57.045Z,101087.44
2022-08-02T20:36:25.035Z,101085.47
2022-08-02T20:38:51.592Z,101082.69
2022-08-02T20:41:21.889Z,101090.22
2022-08-02T20:43:49.257Z,101088.66
2022-08-02T20:46:15.894Z,101093.03
2022-08-02T20:48:42.465Z,101088.66
2022-08-02T20:51:12.322Z,101093.03
2022-08-02T20:53:54.952Z,101099.75
2022-08-02T20:56:23.289Z,101104.91
2022-08-02T20:58:52.195Z,101096.22
2022-08-02T21:01:21.264Z,101093.03
2022-08-02T21:03:58.664Z,101097.38
2022-08-02T21:06:28.061Z,101095.81
2022-08-02T21:09:00.097Z,101105.72
2022-08-02T21:11:33.692Z,101101.75
2022-08-02T21:14:06.549Z,101102.16
2022-08-02T21:16:36.150Z,101102.94
2022-08-02T21:19:02.985Z,101099.38
2022-08-02T21:21:34.550Z,101109.34
2022-08-02T21:24:01.595Z,101093.06
2022-08-02T21:26:31.129Z,101103.75
2022-08-02T21:29:03.507Z,101106.94
2022-08-02T21:31:31.904Z,101106.97
2022-08-02T21:34:00.744Z,101103.75
2022-08-02T21:36:33.948Z,101111.72
2022-08-02T21:39:09.144Z,101111.28
2022-08-02T21:41:46.226Z,101110.47
2022-08-02T21:44:18.272Z,101104.53
2022-08-02T21:46:46.658Z,101112.47
2022-08-02T21:49:16.912Z,101115.63
2022-08-02T21:51:43.682Z,101109.66
2022-08-02T21:54:19.931Z,101117.19
2022-08-02T21:56:49.185Z,101116.03
2022-08-02T21:59:17.451Z,101118.41
2022-08-02T22:01:52.823Z,101125.94
2022-08-02T22:04:20.578Z,101115.22
2022-08-02T22:06:49.178Z,101124.38
2022-08-02T22:09:43.810Z,101117.19
2022-08-02T22:12:06.587Z,101120.38
2022-08-02T22:14:39.475Z,101114.03
2022-08-02T22:17:08.954Z,101120.38
2022-08-02T22:19:40.139Z,101121.97
2022-08-02T22:22:20.268Z,101113.66
2022-08-02T22:24:46.821Z,101117.19
2022-08-02T22:27:14.197Z,101122.75
2022-08-02T22:29:40.688Z,101119.97
2022-08-02T22:32:08.314Z,101116.78
2022-08-02T22:34:52.003Z,101118.34
2022-08-02T22:38:17.545Z,101123.47
2022-08-02T22:40:08.941Z,101120.72
2022-08-02T22:42:36.590Z,101125.03
2022-08-02T22:45:07.688Z,101125.44
2022-08-02T22:47:38.833Z,101119.84
2022-08-02T22:50:17.598Z,101134.91
2022-08-02T22:52:46.846Z,101132.53
2022-08-02T22:55:17.341Z,101129.75
2022-08-02T22:57:56.843Z,101132.56
2022-08-02T23:00:25.208Z,101126.63
2022-08-02T23:02:51.838Z,101125.03
2022-08-02T23:05:18.588Z,101128.19
2022-08-02T23:07:45.096Z,101132.97
2022-08-02T23:10:11.585Z,101127.00
2022-08-02T23:12:38.036Z,101125.06
2022-08-02T23:15:04.839Z,101125.88
2022-08-02T23:17:49.582Z,101125.88
2022-08-02T23:20:20.062Z,101125.84
2022-08-02T23:22:46.558Z,101121.50
2022-08-02T23:25:14.568Z,101120.31
2022-08-02T23:27:49.852Z,101133.00
2022-08-02T23:30:17.768Z,101121.91
2022-08-02T23:32:44.351Z,101120.69
2022-08-02T23:35:16.682Z,101122.28
2022-08-02T23:38:00.376Z,101121.88
2022-08-02T23:40:38.843Z,101118.69
2022-08-02T23:43:14.677Z,101117.91
2022-08-02T23:45:46.080Z,101112.00
2022-08-02T23:48:13.390Z,101110.41
2022-08-02T23:50:39.883Z,101110.81
2022-08-02T23:53:06.391Z,101110.81
2022-08-02T23:55:33.047Z,101109.22
2022-08-02T23:57:59.679Z,101099.72
